Time;durP1;ratioP1;P1;durP2;ratioP2;P2;SDS_P1;SDS_P2;PMS_P1;PMS_P2;Temp;Humidity;BMP_temperature;BMP_pressure;BME280_temperature;BME280_humidity;BME280_pressure;Samples;Min_cycle;Max_cycle;Signal;HPM_P1;HPM_P2
2022/12/18 00:01:50;;;;;;;54.50;23.50;;;-9.40;99.90;;;;;;5001369;28;20209;-73
2022/12/18 00:04:21;;;;;;;54.87;23.77;;;-9.40;99.90;;;;;;5001945;28;20565;-74
2022/12/18 00:06:47;;;;;;;54.87;23.53;;;-9.50;99.90;;;;;;5000142;28;20626;-72
2022/12/18 00:09:12;;;;;;;60.03;24.00;;;-9.50;99.90;;;;;;5002488;28;20389;-75
2022/12/18 00:11:38;;;;;;;64.80;23.00;;;-9.50;99.90;;;;;;5006343;28;20199;-73
2022/12/18 00:14:03;;;;;;;53.57;22.20;;;-9.40;99.90;;;;;;4999054;28;20616;-73
2022/12/18 00:16:32;;;;;;;51.70;23.33;;;-9.50;99.90;;;;;;5001531;28;20179;-73
2022/12/18 00:18:59;;;;;;;64.10;22.40;;;-9.40;99.90;;;;;;4987572;28;20186;-73
2022/12/18 00:21:25;;;;;;;54.90;23.23;;;-9.50;99.90;;;;;;5003658;28;20409;-73
2022/12/18 00:23:51;;;;;;;65.93;24.87;;;-9.50;99.90;;;;;;4990709;28;20410;-74
2022/12/18 00:26:22;;;;;;;56.40;22.73;;;-9.50;99.90;;;;;;4990436;28;20385;-73
2022/12/18 00:28:49;;;;;;;49.70;20.83;;;-9.50;99.90;;;;;;4990829;28;20668;-72
2022/12/18 00:31:20;;;;;;;63.00;23.73;;;-9.60;99.90;;;;;;4989625;28;20421;-73
2022/12/18 00:33:46;;;;;;;58.37;22.37;;;-9.60;99.90;;;;;;4990179;28;20891;-73
2022/12/18 00:36:15;;;;;;;57.93;22.83;;;-9.60;99.90;;;;;;4990375;28;20465;-73
2022/12/18 00:38:41;;;;;;;65.20;22.80;;;-9.60;99.90;;;;;;4974742;28;20180;-73
2022/12/18 00:41:10;;;;;;;46.83;22.87;;;-9.60;99.90;;;;;;4993349;28;20434;-71
2022/12/18 00:43:37;;;;;;;64.50;23.97;;;-9.60;99.90;;;;;;4993967;28;20433;-73
2022/12/18 00:46:03;;;;;;;52.90;22.83;;;-9.70;99.90;;;;;;4994149;28;20902;-73
2022/12/18 00:48:28;;;;;;;50.83;21.70;;;-9.60;99.90;;;;;;4993077;28;20417;-73
2022/12/18 00:50:54;;;;;;;59.03;23.83;;;-9.50;99.90;;;;;;5003499;28;20432;-74
2022/12/18 00:53:20;;;;;;;48.63;24.00;;;-9.60;99.90;;;;;;4999292;28;20215;-74
2022/12/18 00:55:46;;;;;;;48.97;21.83;;;-9.70;99.90;;;;;;4993666;28;20262;-74
2022/12/18 00:58:13;;;;;;;49.57;22.37;;;-9.70;99.90;;;;;;5003252;28;20834;-73
2022/12/18 01:00:38;;;;;;;56.87;24.00;;;-9.70;99.90;;;;;;5001711;28;20433;-73
2022/12/18 01:03:05;;;;;;;51.80;21.77;;;-9.80;99.90;;;;;;5006040;28;20954;-74
2022/12/18 01:05:30;;;;;;;54.73;22.90;;;-9.70;99.90;;;;;;5002923;28;20206;-74
2022/12/18 01:07:56;;;;;;;55.57;22.40;;;-9.80;99.90;;;;;;5002199;28;20455;-75
2022/12/18 01:10:22;;;;;;;53.03;20.77;;;-9.80;99.90;;;;;;4975897;28;20214;-74
2022/12/18 01:12:48;;;;;;;64.17;22.67;;;-9.90;99.90;;;;;;4992586;28;20478;-72
2022/12/18 01:15:14;;;;;;;57.07;22.00;;;-9.90;99.90;;;;;;5012935;28;20966;-74
2022/12/18 01:17:40;;;;;;;42.20;20.77;;;-9.90;99.90;;;;;;5013070;28;20178;-73
2022/12/18 01:20:07;;;;;;;63.97;24.20;;;-10.00;99.90;;;;;;5012800;28;20410;-74
2022/12/18 01:22:32;;;;;;;53.80;21.30;;;-10.00;99.90;;;;;;5011854;28;20669;-74
2022/12/18 01:24:58;;;;;;;54.20;21.40;;;-10.00;99.90;;;;;;4995447;28;20518;-74
2022/12/18 01:27:23;;;;;;;47.83;19.70;;;-10.00;99.90;;;;;;4993434;28;20182;-73
2022/12/18 01:29:49;;;;;;;53.00;22.17;;;-10.00;99.90;;;;;;4992933;28;20229;-74
2022/12/18 01:32:15;;;;;;;55.93;21.40;;;-10.00;99.90;;;;;;4992049;28;20758;-74
2022/12/18 01:34:40;;;;;;;47.60;21.07;;;-10.00;99.90;;;;;;4993018;28;20554;-74
2022/12/18 01:37:06;;;;;;;48.80;22.53;;;-10.00;99.90;;;;;;4992414;28;20739;-74
2022/12/18 01:39:32;;;;;;;46.17;21.40;;;-10.00;99.90;;;;;;4991503;28;20174;-74
2022/12/18 01:42:09;;;;;;;48.97;22.00;;;-10.10;99.90;;;;;;4994688;28;20196;-74
2022/12/18 01:44:55;;;;;;;58.10;23.37;;;-10.10;99.90;;;;;;4996560;28;20432;-74
2022/12/18 01:47:39;;;;;;;50.97;20.20;;;-10.10;99.90;;;;;;4996476;28;20488;-74
2022/12/18 01:50:08;;;;;;;51.80;21.40;;;-10.10;99.90;;;;;;4993911;28;20458;-74
2022/12/18 01:52:35;;;;;;;48.13;19.97;;;-10.00;99.90;;;;;;4993566;28;20428;-73
2022/12/18 01:55:04;;;;;;;48.90;21.80;;;-10.10;99.90;;;;;;4995750;28;20870;-74
2022/12/18 01:57:30;;;;;;;60.93;22.20;;;-10.10;99.90;;;;;;5005196;28;20467;-74
2022/12/18 02:00:01;;;;;;;56.13;22.80;;;-10.00;99.90;;;;;;5008665;28;20461;-73
2022/12/18 03:33:15;;;;;;;54.90;23.87;;;-8.90;99.90;;;;;;5080207;23;21093;-71
2022/12/18 03:35:42;;;;;;;51.30;22.00;;;-9.00;99.90;;;;;;5009464;28;20799;-72
2022/12/18 03:38:09;;;;;;;60.40;22.57;;;-9.00;99.90;;;;;;4993488;28;20431;-72
2022/12/18 03:41:13;;;;;;;59.63;20.27;;;-9.10;99.90;;;;;;5010927;28;20436;-72
2022/12/18 03:43:55;;;;;;;44.90;19.67;;;-9.20;99.90;;;;;;5006783;28;20408;-72
2022/12/18 03:46:33;;;;;;;52.90;20.67;;;-9.20;99.90;;;;;;5007644;28;20412;-72
2022/12/18 03:49:10;;;;;;;54.17;22.60;;;-9.20;99.90;;;;;;5002679;28;20428;-72
2022/12/18 03:51:52;;;;;;;46.03;20.87;;;-9.30;99.90;;;;;;5010075;28;20433;-72
2022/12/18 03:54:19;;;;;;;50.03;21.63;;;-9.30;99.90;;;;;;5010681;28;20417;-72
2022/12/18 03:56:51;;;;;;;45.90;21.10;;;-9.30;99.90;;;;;;5010520;28;20479;-72
2022/12/18 03:59:19;;;;;;;47.43;21.27;;;-9.40;99.90;;;;;;5010682;28;20385;-72
2022/12/18 04:01:51;;;;;;;48.60;20.73;;;-9.40;99.90;;;;;;5010518;28;20459;-72
2022/12/18 04:04:18;;;;;;;53.53;21.60;;;-9.50;99.90;;;;;;5010561;28;20402;-72
2022/12/18 04:06:46;;;;;;;54.63;22.30;;;-9.50;99.90;;;;;;5010898;28;20468;-72
2022/12/18 04:09:13;;;;;;;59.20;20.20;;;-9.50;99.90;;;;;;5011026;28;20424;-73
2022/12/18 04:11:40;;;;;;;49.17;20.77;;;-9.60;99.90;;;;;;5010362;28;20587;-72
2022/12/18 04:14:06;;;;;;;50.83;19.50;;;-9.70;99.90;;;;;;5013248;28;20410;-72
2022/12/18 04:16:31;;;;;;;44.30;20.07;;;-9.70;99.90;;;;;;5014785;28;20732;-72
2022/12/18 04:18:57;;;;;;;54.50;22.40;;;-9.70;99.90;;;;;;5014526;28;20246;-72
2022/12/18 04:21:22;;;;;;;47.47;21.10;;;-9.80;99.90;;;;;;4996671;28;20202;-72
2022/12/18 04:23:48;;;;;;;41.97;18.47;;;-9.80;99.90;;;;;;4996897;28;20182;-72
2022/12/18 04:26:14;;;;;;;54.27;19.93;;;-9.80;99.90;;;;;;5014363;28;20182;-72
2022/12/18 04:28:39;;;;;;;50.73;21.10;;;-9.80;99.90;;;;;;5014418;28;20837;-72
2022/12/18 04:31:05;;;;;;;44.83;19.03;;;-9.90;99.90;;;;;;5013744;28;20195;-72
2022/12/18 04:33:31;;;;;;;46.90;22.20;;;-9.90;99.90;;;;;;5014400;28;20677;-72
2022/12/18 04:35:56;;;;;;;49.60;20.60;;;-9.90;99.90;;;;;;5013943;28;20198;-72
2022/12/18 04:38:22;;;;;;;46.40;22.30;;;-9.90;99.90;;;;;;5014590;28;20246;-72
2022/12/18 04:40:47;;;;;;;41.33;19.67;;;-9.90;99.90;;;;;;5014462;28;20226;-71
2022/12/18 04:43:13;;;;;;;50.40;18.30;;;-9.90;99.90;;;;;;5014909;28;20171;-74
2022/12/18 04:45:38;;;;;;;49.17;19.13;;;-9.80;99.90;;;;;;5014545;28;20203;-72
2022/12/18 04:48:04;;;;;;;52.60;18.87;;;-9.80;99.90;;;;;;5014355;28;20538;-71
2022/12/18 04:50:30;;;;;;;37.97;17.37;;;-9.80;99.90;;;;;;5013926;28;20565;-73
2022/12/18 04:52:56;;;;;;;38.47;16.77;;;-9.70;99.90;;;;;;5014029;28;20421;-73
2022/12/18 04:55:24;;;;;;;43.37;16.83;;;-9.50;99.90;;;;;;5013680;28;20250;-73
2022/12/18 04:57:50;;;;;;;41.13;18.67;;;-9.30;99.90;;;;;;5014645;28;20630;-73
2022/12/18 05:00:16;;;;;;;37.70;18.13;;;-9.00;99.90;;;;;;4995631;28;20450;-73
2022/12/18 05:02:41;;;;;;;44.23;20.33;;;-8.80;99.90;;;;;;5013721;28;20171;-73
2022/12/18 05:05:08;;;;;;;32.47;17.07;;;-8.70;99.90;;;;;;5012685;28;20552;-73
2022/12/18 05:07:33;;;;;;;48.97;19.33;;;-8.60;99.90;;;;;;5013094;28;20182;-73
2022/12/18 05:09:59;;;;;;;38.27;17.50;;;-8.50;99.90;;;;;;5013759;28;20786;-73
2022/12/18 05:12:24;;;;;;;45.40;20.00;;;-8.40;99.90;;;;;;5013320;28;20214;-73
2022/12/18 05:14:50;;;;;;;35.37;17.80;;;-8.40;99.90;;;;;;5013815;28;20215;-73
2022/12/18 05:17:16;;;;;;;46.73;17.70;;;-8.40;99.90;;;;;;5013917;28;20175;-74
2022/12/18 05:19:41;;;;;;;42.10;18.90;;;-8.40;99.90;;;;;;5014030;28;20631;-71
2022/12/18 05:22:07;;;;;;;37.07;16.73;;;-8.40;99.90;;;;;;5013126;28;20564;-72
2022/12/18 05:24:33;;;;;;;34.70;16.90;;;-8.40;99.90;;;;;;5014283;28;20190;-72
2022/12/18 05:26:59;;;;;;;42.70;19.60;;;-8.40;99.90;;;;;;5013555;28;20512;-71
2022/12/18 05:29:24;;;;;;;37.40;19.03;;;-8.50;99.90;;;;;;5013802;28;20206;-72
2022/12/18 05:31:50;;;;;;;35.83;17.57;;;-8.50;99.90;;;;;;5012898;28;20214;-74
2022/12/18 05:34:16;;;;;;;34.90;16.50;;;-8.60;99.90;;;;;;4994527;28;20183;-73
2022/12/18 05:36:41;;;;;;;34.97;16.27;;;-8.50;99.90;;;;;;5013190;28;20619;-73
2022/12/18 05:39:07;;;;;;;40.20;16.27;;;-8.60;99.90;;;;;;5012925;28;20182;-74
2022/12/18 05:41:33;;;;;;;38.00;18.40;;;-8.70;99.90;;;;;;4995100;28;20222;-74
2022/12/18 05:43:58;;;;;;;34.07;15.73;;;-8.70;99.90;;;;;;5012774;28;20178;-73
2022/12/18 05:46:24;;;;;;;34.73;16.50;;;-8.70;99.90;;;;;;5013242;28;20190;-73
2022/12/18 05:48:50;;;;;;;36.50;17.83;;;-8.80;99.90;;;;;;5012940;28;20276;-74
2022/12/18 05:51:19;;;;;;;35.33;15.77;;;-8.70;99.90;;;;;;5012161;28;20206;-74
2022/12/18 05:53:45;;;;;;;43.57;18.73;;;-8.70;99.90;;;;;;5012840;28;20426;-74
2022/12/18 05:56:14;;;;;;;35.00;17.63;;;-8.60;99.90;;;;;;5012539;28;20976;-75
2022/12/18 05:58:40;;;;;;;34.10;16.47;;;-8.50;99.90;;;;;;5012844;28;20501;-75
2022/12/18 06:01:17;;;;;;;37.83;17.53;;;-8.60;99.90;;;;;;5011788;28;20459;-75
2022/12/18 06:03:43;;;;;;;33.97;15.57;;;-8.70;99.90;;;;;;5012698;28;20186;-75
2022/12/18 06:06:26;;;;;;;34.87;16.10;;;-8.80;99.90;;;;;;5012218;28;20399;-75
2022/12/18 06:08:52;;;;;;;35.10;16.07;;;-8.80;99.90;;;;;;5012689;28;20193;-74
2022/12/18 06:11:27;;;;;;;35.10;17.20;;;-8.90;99.90;;;;;;5011544;28;20926;-75
2022/12/18 06:13:54;;;;;;;32.27;16.03;;;-8.90;99.90;;;;;;4994949;28;20913;-75
2022/12/18 06:16:20;;;;;;;38.73;17.97;;;-9.00;99.90;;;;;;5012249;28;20920;-75
2022/12/18 06:18:46;;;;;;;34.50;14.73;;;-9.00;99.90;;;;;;5012487;28;20433;-75
2022/12/18 06:21:11;;;;;;;42.50;17.20;;;-9.10;99.90;;;;;;5011598;28;20238;-75
2022/12/18 06:23:37;;;;;;;34.77;14.57;;;-9.20;99.90;;;;;;5012456;28;20627;-75
2022/12/18 06:26:07;;;;;;;37.70;15.70;;;-9.20;99.90;;;;;;5011976;28;20627;-75
2022/12/18 06:28:33;;;;;;;38.23;14.70;;;-9.30;99.90;;;;;;5012392;28;20183;-75
2022/12/18 06:30:59;;;;;;;37.23;16.50;;;-9.30;99.90;;;;;;5011680;28;20484;-75
2022/12/18 06:33:27;;;;;;;33.33;16.03;;;-9.40;99.90;;;;;;5012283;28;20643;-75
2022/12/18 06:35:52;;;;;;;36.33;15.43;;;-9.40;99.90;;;;;;4993961;28;20221;-75
2022/12/18 06:38:18;;;;;;;32.13;15.70;;;-9.40;99.90;;;;;;5011801;28;20810;-75
2022/12/18 06:40:43;;;;;;;38.90;16.20;;;-9.50;99.90;;;;;;5011770;28;20198;-75
2022/12/18 06:43:09;;;;;;;37.23;17.40;;;-9.50;99.90;;;;;;5011587;28;20232;-75
2022/12/18 06:45:34;;;;;;;35.30;16.30;;;-9.60;99.90;;;;;;5000112;28;20190;-75
2022/12/18 06:48:00;;;;;;;35.80;15.83;;;-9.60;99.90;;;;;;4992008;28;20179;-75
2022/12/18 06:50:26;;;;;;;30.87;16.07;;;-9.60;99.90;;;;;;4992288;28;20179;-74
2022/12/18 06:52:51;;;;;;;34.57;14.27;;;-9.70;99.90;;;;;;4991025;28;20541;-74
2022/12/18 06:55:17;;;;;;;25.47;14.67;;;-9.70;99.90;;;;;;4991876;28;20211;-74
2022/12/18 06:57:42;;;;;;;37.63;14.10;;;-9.70;99.90;;;;;;4992071;28;20184;-74
2022/12/18 07:00:09;;;;;;;38.10;16.80;;;-9.70;99.90;;;;;;4991972;28;20183;-74
2022/12/18 07:02:34;;;;;;;36.40;16.47;;;-9.80;99.90;;;;;;4991822;28;20557;-74
2022/12/18 07:05:00;;;;;;;41.17;16.77;;;-9.80;99.90;;;;;;4991879;28;20481;-74
2022/12/18 07:07:26;;;;;;;35.63;14.90;;;-9.80;99.90;;;;;;4992174;28;20198;-74
2022/12/18 07:09:51;;;;;;;32.97;15.27;;;-9.80;99.90;;;;;;4991917;28;20389;-74
2022/12/18 07:12:17;;;;;;;34.80;15.87;;;-9.90;99.90;;;;;;4991229;28;20203;-74
2022/12/18 07:14:43;;;;;;;29.60;13.87;;;-9.90;99.90;;;;;;4974324;28;20211;-73
2022/12/18 07:17:08;;;;;;;35.43;15.03;;;-9.80;99.90;;;;;;4991530;28;20644;-74
2022/12/18 07:19:34;;;;;;;37.33;17.40;;;-9.80;99.90;;;;;;4974265;28;20180;-74
2022/12/18 07:22:00;;;;;;;38.33;16.07;;;-9.80;99.90;;;;;;4991429;28;20195;-74
2022/12/18 07:24:25;;;;;;;53.57;17.20;;;-9.80;99.90;;;;;;4991483;28;20179;-74
2022/12/18 07:26:51;;;;;;;35.73;14.87;;;-9.70;99.90;;;;;;4991724;28;20179;-74
2022/12/18 07:29:16;;;;;;;38.00;15.37;;;-9.70;99.90;;;;;;4991345;28;20187;-74
2022/12/18 07:31:42;;;;;;;32.97;15.73;;;-9.70;99.90;;;;;;4991112;28;20215;-74
2022/12/18 07:34:12;;;;;;;28.30;13.80;;;-9.70;99.90;;;;;;4991565;28;20179;-74
2022/12/18 07:36:38;;;;;;;35.00;16.43;;;-9.60;99.90;;;;;;4991216;28;20199;-74
2022/12/18 07:39:04;;;;;;;39.43;16.27;;;-9.60;99.90;;;;;;4991689;28;20922;-73
2022/12/18 07:41:29;;;;;;;32.50;16.20;;;-9.50;99.90;;;;;;4990853;28;20195;-73
2022/12/18 07:43:55;;;;;;;29.30;14.37;;;-9.50;99.90;;;;;;4974393;28;20210;-74
2022/12/18 07:46:21;;;;;;;36.60;14.33;;;-9.50;99.90;;;;;;4991234;28;20695;-73
2022/12/18 07:48:47;;;;;;;31.20;15.60;;;-9.40;99.90;;;;;;4990854;28;20266;-74
2022/12/18 07:51:13;;;;;;;39.67;18.07;;;-9.30;99.90;;;;;;4990705;28;21003;-74
2022/12/18 07:53:39;;;;;;;40.23;20.20;;;-9.20;99.90;;;;;;4993521;28;20210;-74
2022/12/18 07:56:08;;;;;;;44.30;19.50;;;-9.20;99.90;;;;;;5009130;28;20822;-75
2022/12/18 07:58:34;;;;;;;34.43;16.13;;;-9.10;99.90;;;;;;5009603;28;20495;-74
2022/12/18 08:01:04;;;;;;;31.67;13.50;;;-9.10;99.90;;;;;;5009351;28;20446;-74
2022/12/18 08:03:29;;;;;;;35.10;15.97;;;-9.00;99.90;;;;;;5009558;28;20511;-74
2022/12/18 08:05:59;;;;;;;31.80;16.30;;;-9.00;99.90;;;;;;5009609;28;20446;-73
2022/12/18 08:08:24;;;;;;;33.13;17.20;;;-8.90;99.90;;;;;;5009053;28;20230;-74
2022/12/18 08:10:50;;;;;;;31.97;16.20;;;-8.90;99.90;;;;;;5009350;28;20927;-74
2022/12/18 08:13:16;;;;;;;44.23;16.83;;;-8.80;99.90;;;;;;5009024;28;20732;-74
2022/12/18 08:15:41;;;;;;;40.73;16.03;;;-8.60;99.90;;;;;;4992072;28;20570;-74
2022/12/18 08:18:07;;;;;;;33.03;15.60;;;-8.60;99.90;;;;;;5009165;28;20666;-74
2022/12/18 08:20:32;;;;;;;34.63;16.97;;;-8.50;99.90;;;;;;5009480;28;20215;-74
2022/12/18 08:22:58;;;;;;;48.70;19.93;;;-8.40;99.90;;;;;;5008596;28;20400;-74
2022/12/18 08:25:23;;;;;;;45.37;19.13;;;-8.30;99.90;;;;;;5008887;28;20210;-74
2022/12/18 08:27:49;;;;;;;39.53;19.57;;;-8.10;99.90;;;;;;4976104;28;20232;-74
2022/12/18 08:30:15;;;;;;;41.00;18.30;;;-7.80;99.90;;;;;;5008496;28;20284;-73
2022/12/18 08:32:40;;;;;;;37.33;16.80;;;-7.60;99.90;;;;;;4991699;28;20246;-73
2022/12/18 08:35:07;;;;;;;42.70;20.17;;;-7.40;99.90;;;;;;4991105;28;20219;-74
2022/12/18 08:37:33;;;;;;;41.63;20.50;;;-7.20;99.90;;;;;;4992368;28;20674;-73
2022/12/18 08:39:59;;;;;;;46.80;21.23;;;-7.00;99.90;;;;;;5008955;28;20457;-71
2022/12/18 08:45:09;;;;;;;43.00;19.67;;;-6.80;99.90;;;;;;5009205;28;20229;-73
2022/12/18 08:47:34;;;;;;;45.37;20.50;;;-6.70;99.90;;;;;;5011105;28;20777;-74
2022/12/18 08:50:00;;;;;;;43.83;20.20;;;-6.50;99.90;;;;;;5010035;28;20814;-74
2022/12/18 08:52:25;;;;;;;43.63;20.17;;;-6.40;99.90;;;;;;5010207;28;20191;-74
2022/12/18 08:54:51;;;;;;;48.33;21.50;;;-6.20;99.90;;;;;;5010301;28;20207;-74
2022/12/18 08:57:16;;;;;;;49.87;20.97;;;-6.10;99.90;;;;;;5010480;28;20237;-74
2022/12/18 08:59:42;;;;;;;45.60;20.50;;;-5.90;99.90;;;;;;5011528;28;20182;-74
2022/12/18 09:02:10;;;;;;;48.70;22.93;;;-5.80;99.90;;;;;;5013324;28;20273;-74
2022/12/18 09:04:36;;;;;;;43.37;20.73;;;-5.70;99.90;;;;;;5013880;28;20643;-73
2022/12/18 09:07:01;;;;;;;49.60;22.87;;;-5.60;99.90;;;;;;5011777;28;20399;-74
2022/12/18 09:09:27;;;;;;;55.77;22.20;;;-5.50;99.90;;;;;;4994922;28;20278;-73
2022/12/18 09:11:56;;;;;;;55.73;24.77;;;-5.40;99.90;;;;;;5015215;28;20359;-74
2022/12/18 09:14:23;;;;;;;50.07;23.10;;;-5.10;99.90;;;;;;5017391;28;20420;-71
2022/12/18 09:16:49;;;;;;;47.30;21.93;;;-4.60;99.90;;;;;;5017082;28;20386;-73
2022/12/18 09:19:29;;;;;;;37.73;20.27;;;-4.10;99.90;;;;;;5016425;28;20381;-70
2022/12/18 09:22:01;;;;;;;51.67;24.07;;;-3.60;99.90;;;;;;5015243;28;20412;-72
2022/12/18 09:24:31;;;;;;;47.00;21.83;;;-2.70;99.90;;;;;;5016111;28;20477;-75
2022/12/18 09:27:01;;;;;;;37.57;19.03;;;-2.30;99.90;;;;;;5014742;28;20428;-76
2022/12/18 09:29:40;;;;;;;41.70;20.50;;;-1.90;99.90;;;;;;5017182;28;20417;-74
2022/12/18 09:32:14;;;;;;;55.47;24.63;;;-1.70;99.90;;;;;;5015416;28;20461;-74
2022/12/18 09:34:40;;;;;;;41.83;20.63;;;-1.50;99.90;;;;;;4998349;28;20446;-75
2022/12/18 09:37:08;;;;;;;42.83;20.97;;;-1.20;99.90;;;;;;5015701;28;20447;-72
2022/12/18 09:39:36;;;;;;;44.53;20.83;;;-1.50;99.90;;;;;;5014949;28;20171;-75
2022/12/18 09:42:06;;;;;;;38.90;19.67;;;-1.40;99.90;;;;;;5014899;28;20437;-72
2022/12/18 09:45:09;;;;;;;45.63;22.93;;;-1.40;99.90;;;;;;5015519;28;20387;-75
2022/12/18 09:47:37;;;;;;;51.67;23.33;;;-1.50;99.90;;;;;;5016782;28;20373;-72
2022/12/18 09:50:29;;;;;;;62.50;27.20;;;-1.10;99.90;;;;;;5015479;28;20411;-72
2022/12/18 09:53:02;;;;;;;42.50;21.87;;;-0.80;99.90;;;;;;5015862;28;20417;-72
2022/12/18 09:55:34;;;;;;;43.37;23.13;;;-1.10;99.90;;;;;;5016040;28;20518;-70
2022/12/18 09:58:38;;;;;;;53.60;25.67;;;-0.90;99.90;;;;;;5015737;28;20365;-72
2022/12/18 10:01:16;;;;;;;83.80;30.87;;;-0.90;99.90;;;;;;4993056;28;20489;-70
2022/12/18 10:03:44;;;;;;;42.33;20.37;;;-0.80;99.90;;;;;;5015929;28;20407;-72
2022/12/18 10:06:55;;;;;;;73.63;30.40;;;-0.50;99.90;;;;;;4997425;28;20422;-72
2022/12/18 10:09:38;;;;;;;45.87;22.50;;;-0.40;99.90;;;;;;4978283;28;20436;-72
2022/12/18 10:12:26;;;;;;;38.40;19.47;;;-0.10;99.90;;;;;;5013836;28;20434;-70
2022/12/18 10:15:43;;;;;;;39.50;21.43;;;0.10;99.90;;;;;;5015608;28;20857;-71
2022/12/18 10:18:34;;;;;;;47.33;22.80;;;0.10;99.90;;;;;;4945154;28;20958;-71
2022/12/18 10:21:11;;;;;;;50.40;21.57;;;0.20;99.90;;;;;;5013947;28;20439;-70
2022/12/18 10:24:18;;;;;;;92.03;26.43;;;0.30;99.90;;;;;;5014846;28;20479;-70
2022/12/18 10:26:44;;;;;;;51.63;23.00;;;0.30;99.90;;;;;;5013970;28;20465;-71
2022/12/18 10:29:13;;;;;;;55.23;22.40;;;0.30;99.90;;;;;;4998019;28;20810;-71
2022/12/18 10:31:39;;;;;;;46.97;22.07;;;0.40;99.90;;;;;;5014813;28;20425;-72
2022/12/18 10:34:12;;;;;;;44.73;22.60;;;0.40;99.90;;;;;;5013788;28;20525;-70
2022/12/18 10:36:38;;;;;;;44.57;21.80;;;0.30;99.90;;;;;;5013988;28;20433;-73
2022/12/18 10:39:22;;;;;;;49.03;22.63;;;0.30;99.90;;;;;;5014119;28;20397;-72
2022/12/18 10:41:49;;;;;;;50.33;22.70;;;0.30;99.90;;;;;;4995621;28;20655;-70
2022/12/18 10:44:20;;;;;;;39.43;20.80;;;0.10;99.90;;;;;;5014357;28;20782;-72
2022/12/18 10:46:49;;;;;;;46.30;19.77;;;0.30;99.90;;;;;;5014439;28;20389;-71
2022/12/18 10:49:22;;;;;;;54.23;27.10;;;0.40;99.90;;;;;;5014930;28;20448;-71
2022/12/18 10:51:48;;;;;;;44.37;22.03;;;0.40;99.90;;;;;;5014853;28;20415;-72
2022/12/18 10:54:18;;;;;;;60.17;22.13;;;0.30;99.90;;;;;;5015168;28;20417;-70
2022/12/18 10:56:44;;;;;;;88.23;31.43;;;0.00;99.90;;;;;;5014662;28;20402;-70
2022/12/18 10:59:13;;;;;;;90.53;26.53;;;-0.10;99.90;;;;;;5015203;28;20414;-69
2022/12/18 11:01:56;;;;;;;60.43;22.00;;;0.00;99.90;;;;;;5014649;28;20491;-71
2022/12/18 11:04:28;;;;;;;73.03;24.27;;;0.10;99.90;;;;;;5015958;28;20369;-70
2022/12/18 11:06:58;;;;;;;118.07;30.93;;;0.10;99.90;;;;;;5015649;28;20412;-71
2022/12/18 11:09:26;;;;;;;59.70;25.17;;;0.40;99.90;;;;;;5016112;28;20382;-70
2022/12/18 11:11:55;;;;;;;87.53;23.23;;;0.10;99.90;;;;;;5014540;28;20408;-70
2022/12/18 11:14:27;;;;;;;111.10;28.07;;;0.30;99.90;;;;;;5014039;28;20745;-70
2022/12/18 11:16:55;;;;;;;109.27;24.97;;;0.10;99.90;;;;;;5013370;28;20433;-69
2022/12/18 11:19:26;;;;;;;211.60;47.73;;;0.00;99.90;;;;;;5013014;28;20421;-72
2022/12/18 11:21:52;;;;;;;112.90;24.30;;;0.10;99.90;;;;;;5012610;28;20437;-72
2022/12/18 11:24:20;;;;;;;115.80;24.97;;;0.20;99.90;;;;;;5012430;28;20418;-71
2022/12/18 11:26:46;;;;;;;125.10;26.67;;;-0.30;99.90;;;;;;5013015;28;20400;-70
2022/12/18 11:29:27;;;;;;;108.47;23.40;;;-0.30;99.90;;;;;;5012765;28;20393;-71
2022/12/18 11:32:20;;;;;;;115.77;21.83;;;-0.10;99.90;;;;;;4996011;28;21015;-72
2022/12/18 11:34:50;;;;;;;111.73;22.33;;;0.00;99.90;;;;;;5013675;28;20470;-72
2022/12/18 11:37:19;;;;;;;116.30;22.17;;;0.00;99.90;;;;;;5011865;28;20782;-71
2022/12/18 11:40:00;;;;;;;117.83;23.43;;;-0.10;99.90;;;;;;5013012;28;20736;-72
2022/12/18 11:42:46;;;;;;;118.47;23.47;;;-0.20;99.90;;;;;;5012968;28;20875;-71
2022/12/18 11:45:15;;;;;;;122.07;25.10;;;-0.30;99.90;;;;;;5012526;28;20378;-71
2022/12/18 11:48:05;;;;;;;128.70;26.70;;;-0.30;99.90;;;;;;5012393;28;20539;-71
2022/12/18 11:50:36;;;;;;;113.40;22.07;;;-0.30;99.90;;;;;;5012047;28;20520;-71
2022/12/18 11:53:02;;;;;;;91.03;20.43;;;-0.30;99.90;;;;;;5011778;28;20422;-71
2022/12/18 11:55:43;;;;;;;95.20;18.70;;;-0.30;99.90;;;;;;5010950;28;20527;-71
2022/12/18 11:58:34;;;;;;;98.00;20.73;;;-0.30;99.90;;;;;;5011365;28;20386;-69
2022/12/18 12:01:34;;;;;;;112.83;21.37;;;-0.30;99.90;;;;;;5010717;28;20407;-71
2022/12/18 12:04:23;;;;;;;107.67;21.10;;;-0.30;99.90;;;;;;5011501;28;20419;-70
2022/12/18 12:07:00;;;;;;;107.30;19.50;;;-0.20;99.90;;;;;;5011319;28;20540;-70
2022/12/18 12:09:47;;;;;;;101.33;18.30;;;-0.30;99.90;;;;;;5011238;28;20833;-70
2022/12/18 12:12:45;;;;;;;112.10;20.63;;;-0.40;99.90;;;;;;4993040;28;20412;-70
2022/12/18 12:15:32;;;;;;;106.13;19.90;;;-0.40;99.90;;;;;;5011092;28;20486;-70
2022/12/18 12:18:18;;;;;;;101.17;18.03;;;-0.50;99.90;;;;;;4993333;28;20479;-70
2022/12/18 12:21:10;;;;;;;97.93;19.00;;;-0.70;99.90;;;;;;5010967;28;20409;-70
2022/12/18 12:24:17;;;;;;;103.30;18.80;;;-0.80;99.90;;;;;;5011165;28;20860;-70
2022/12/18 12:26:48;;;;;;;107.43;20.23;;;-0.90;99.90;;;;;;4940467;28;20399;-70
2022/12/18 12:29:42;;;;;;;105.20;20.47;;;-0.70;99.90;;;;;;5010845;28;20511;-71
2022/12/18 12:32:22;;;;;;;98.77;17.63;;;-0.70;99.90;;;;;;5009209;28;20452;-71
2022/12/18 12:34:59;;;;;;;106.00;20.83;;;-0.70;99.90;;;;;;4995297;28;20441;-71
2022/12/18 12:37:27;;;;;;;103.97;18.00;;;-0.80;99.90;;;;;;4997039;28;20752;-70
2022/12/18 12:39:55;;;;;;;105.33;19.80;;;-0.80;99.90;;;;;;5015184;28;20467;-70
2022/12/18 12:45:26;;;;;;;103.13;18.77;;;-0.70;99.90;;;;;;5014904;28;20375;-69
2022/12/18 12:47:53;;;;;;;109.27;20.67;;;-0.70;99.90;;;;;;5014743;28;20430;-71
2022/12/18 12:50:20;;;;;;;108.97;22.10;;;-0.70;99.90;;;;;;5014651;28;20893;-70
2022/12/18 12:52:55;;;;;;;105.07;21.93;;;-0.70;99.90;;;;;;5014542;28;20429;-71
2022/12/18 12:55:24;;;;;;;97.80;18.20;;;-0.60;99.90;;;;;;5014842;28;20479;-71
2022/12/18 12:58:17;;;;;;;88.60;18.20;;;-0.60;99.90;;;;;;5014689;28;20750;-71
2022/12/18 13:01:10;;;;;;;108.37;20.33;;;-0.50;99.90;;;;;;5014401;28;20846;-71
2022/12/18 13:03:50;;;;;;;108.40;19.83;;;-0.40;99.90;;;;;;5014312;28;20953;-71
2022/12/18 13:06:30;;;;;;;100.07;18.43;;;-0.30;99.90;;;;;;5014657;28;20377;-71
2022/12/18 13:09:00;;;;;;;102.27;19.47;;;-0.30;99.90;;;;;;5014395;28;20381;-70
2022/12/18 13:14:30;;;;;;;104.03;19.80;;;-0.30;99.90;;;;;;5014086;28;20961;-71
2022/12/18 13:17:14;;;;;;;107.97;19.80;;;-0.20;99.90;;;;;;5014022;28;20426;-71
2022/12/18 13:19:40;;;;;;;103.17;20.00;;;-0.20;99.90;;;;;;5013946;28;20452;-71
2022/12/18 13:22:24;;;;;;;104.80;18.67;;;-0.10;99.90;;;;;;5013811;28;20393;-71
2022/12/18 13:24:50;;;;;;;106.53;20.00;;;-0.20;99.90;;;;;;4996096;28;20182;-71
2022/12/18 13:27:44;;;;;;;96.23;19.50;;;-0.30;99.90;;;;;;5013719;28;20805;-71
2022/12/18 13:30:32;;;;;;;101.27;18.80;;;-0.40;99.90;;;;;;5013555;28;20450;-70
2022/12/18 13:33:13;;;;;;;102.33;19.40;;;-0.40;99.90;;;;;;5003283;28;21042;-71
2022/12/18 13:35:45;;;;;;;107.30;21.60;;;-0.20;99.90;;;;;;5013616;28;20440;-71
2022/12/18 13:38:31;;;;;;;104.43;21.00;;;-0.30;99.90;;;;;;5013703;28;20404;-71
2022/12/18 13:41:01;;;;;;;102.40;18.87;;;-0.40;99.90;;;;;;5013310;28;20475;-71
2022/12/18 13:43:38;;;;;;;100.83;18.50;;;-0.40;99.90;;;;;;5014325;28;20796;-72
2022/12/18 13:46:40;;;;;;;101.33;19.17;;;-0.30;99.90;;;;;;5012273;28;20402;-72
2022/12/18 13:49:12;;;;;;;105.23;19.00;;;-0.30;99.90;;;;;;5013535;28;20893;-69
2022/12/18 13:51:44;;;;;;;95.93;19.73;;;-0.30;99.90;;;;;;5012790;28;20438;-73
2022/12/18 13:54:30;;;;;;;104.27;19.40;;;-0.30;99.90;;;;;;4995310;28;20432;-71
2022/12/18 13:56:56;;;;;;;134.37;38.07;;;-0.30;99.90;;;;;;5013066;28;20448;-71
2022/12/18 13:59:32;;;;;;;145.07;34.77;;;-0.30;99.90;;;;;;4995362;28;20996;-71
2022/12/18 14:02:05;;;;;;;114.50;20.50;;;-0.30;99.90;;;;;;5012330;28;20290;-71
2022/12/18 14:04:33;;;;;;;116.60;21.17;;;-0.30;99.90;;;;;;5013086;28;20373;-70
2022/12/18 14:07:07;;;;;;;113.40;19.63;;;-0.30;99.90;;;;;;5012780;28;20434;-71
2022/12/18 14:09:39;;;;;;;110.97;18.33;;;-0.50;99.90;;;;;;5012774;28;20388;-71
2022/12/18 14:14:51;;;;;;;107.90;19.90;;;-0.60;99.90;;;;;;5012422;28;20519;-71
2022/12/18 14:17:18;;;;;;;111.70;21.73;;;-0.60;99.90;;;;;;4994853;28;20890;-71
2022/12/18 14:19:47;;;;;;;116.93;21.30;;;-0.70;99.90;;;;;;5012470;28;20435;-71
2022/12/18 14:22:30;;;;;;;109.37;19.07;;;-0.70;99.90;;;;;;5012199;28;20401;-70
2022/12/18 14:25:17;;;;;;;113.70;21.50;;;-0.70;99.90;;;;;;5012892;28;20420;-70
2022/12/18 14:27:46;;;;;;;98.17;18.83;;;-0.80;99.90;;;;;;5012456;28;20495;-70